Time;durP1;ratioP1;P1;durP2;ratioP2;P2;SDS_P1;SDS_P2;PMS_P1;PMS_P2;Temp;Humidity;BMP_temperature;BMP_pressure;BME280_temperature;BME280_humidity;BME280_pressure;Samples;Min_cycle;Max_cycle;Signal;HPM_P1;HPM_P2
2021/12/31 00:00:26;;;;;;;9.60;4.95;;;10.90;99.90;;;;;;5010570;28;20026;-84
2021/12/31 00:02:52;;;;;;;12.07;5.00;;;10.90;99.90;;;;;;5010972;28;20021;-84
2021/12/31 00:05:18;;;;;;;10.60;5.40;;;10.90;99.90;;;;;;5010439;28;20044;-84
2021/12/31 00:07:45;;;;;;;8.82;4.75;;;10.80;99.90;;;;;;5010594;28;20108;-84
2021/12/31 00:10:11;;;;;;;10.30;5.97;;;10.80;99.90;;;;;;4992923;28;20564;-82
2021/12/31 00:12:40;;;;;;;10.35;5.35;;;10.70;99.90;;;;;;5010452;28;20125;-82
2021/12/31 00:15:06;;;;;;;11.07;5.38;;;10.70;99.90;;;;;;4992682;28;20109;-82
2021/12/31 00:17:32;;;;;;;9.50;5.28;;;10.60;99.90;;;;;;4991964;28;20386;-82
2021/12/31 00:20:05;;;;;;;8.65;5.80;;;10.50;99.90;;;;;;5009868;28;20029;-82
2021/12/31 00:25:03;;;;;;;10.50;6.15;;;10.50;99.90;;;;;;5010157;28;20041;-82
2021/12/31 00:27:28;;;;;;;10.85;6.50;;;10.50;99.90;;;;;;5009941;28;20025;-82
2021/12/31 00:29:54;;;;;;;9.63;6.35;;;10.40;99.90;;;;;;5010473;28;20381;-82
2021/12/31 00:32:20;;;;;;;11.10;6.50;;;10.40;99.90;;;;;;4992480;28;20129;-82
2021/12/31 00:34:46;;;;;;;13.40;6.72;;;10.30;99.90;;;;;;5009862;28;20034;-82
2021/12/31 00:37:11;;;;;;;11.73;6.70;;;10.30;99.90;;;;;;5009934;28;20026;-82
2021/12/31 00:39:37;;;;;;;10.30;6.25;;;10.20;99.90;;;;;;5010132;28;20034;-82
2021/12/31 00:42:03;;;;;;;10.48;6.53;;;10.20;99.90;;;;;;5009991;28;20038;-82
2021/12/31 00:44:29;;;;;;;13.35;6.38;;;10.20;99.90;;;;;;5010279;28;20203;-82
2021/12/31 00:46:55;;;;;;;12.75;6.68;;;10.20;99.90;;;;;;5009998;28;20133;-83
2021/12/31 00:49:21;;;;;;;11.15;6.50;;;10.30;99.90;;;;;;5009963;28;20198;-82
2021/12/31 00:51:47;;;;;;;11.02;6.65;;;10.30;99.90;;;;;;5010124;28;20460;-82
2021/12/31 00:54:12;;;;;;;12.23;5.72;;;10.30;99.90;;;;;;5009912;28;20390;-82
2021/12/31 00:56:38;;;;;;;14.10;5.95;;;10.30;99.90;;;;;;5009804;28;20084;-82
2021/12/31 00:59:04;;;;;;;9.60;5.20;;;10.20;99.90;;;;;;5010267;28;20022;-82
2021/12/31 01:01:32;;;;;;;9.68;5.00;;;10.30;99.90;;;;;;5009843;28;20080;-82
2021/12/31 01:03:57;;;;;;;8.98;4.72;;;10.40;99.90;;;;;;5009853;28;20483;-82
2021/12/31 01:06:24;;;;;;;8.65;4.57;;;10.40;99.90;;;;;;5010244;28;20037;-82
2021/12/31 01:08:49;;;;;;;8.50;4.70;;;10.40;99.90;;;;;;5009946;28;20026;-82
2021/12/31 01:11:15;;;;;;;9.43;4.97;;;10.30;99.90;;;;;;5009949;28;20030;-82
2021/12/31 01:13:55;;;;;;;8.68;4.75;;;10.40;99.90;;;;;;5009912;28;20025;-82
2021/12/31 01:16:23;;;;;;;11.25;4.55;;;10.40;99.90;;;;;;5009691;28;20359;-82
2021/12/31 01:21:18;;;;;;;8.23;4.28;;;10.40;99.90;;;;;;5009496;28;20026;-82
2021/12/31 01:23:45;;;;;;;8.60;4.57;;;10.40;99.90;;;;;;5009473;28;20026;-82
2021/12/31 01:26:10;;;;;;;10.68;4.57;;;10.50;99.90;;;;;;5009637;28;20030;-82
2021/12/31 01:28:36;;;;;;;8.98;4.50;;;10.50;99.90;;;;;;5009822;28;20033;-82
2021/12/31 01:31:03;;;;;;;7.65;4.30;;;10.50;99.90;;;;;;5013305;28;20080;-82
2021/12/31 01:33:28;;;;;;;7.82;4.00;;;10.50;99.90;;;;;;5013149;28;20048;-82
2021/12/31 01:35:54;;;;;;;10.00;4.43;;;10.50;99.90;;;;;;5013064;28;20386;-82
2021/12/31 01:38:20;;;;;;;11.20;4.60;;;10.50;99.90;;;;;;5012982;28;20426;-82
2021/12/31 01:40:46;;;;;;;12.88;5.13;;;10.50;99.90;;;;;;5013018;28;20300;-82
2021/12/31 01:43:12;;;;;;;6.40;3.85;;;10.50;99.90;;;;;;5012941;28;20493;-82
2021/12/31 01:45:47;;;;;;;7.95;3.92;;;10.40;99.90;;;;;;5012885;28;20171;-82
2021/12/31 01:48:32;;;;;;;7.80;4.25;;;10.40;99.90;;;;;;4995084;28;20181;-82
2021/12/31 01:50:58;;;;;;;9.63;4.70;;;10.40;99.90;;;;;;5012979;28;20358;-82
2021/12/31 01:53:26;;;;;;;8.95;4.43;;;10.30;99.90;;;;;;5012934;28;20034;-82
2021/12/31 01:55:55;;;;;;;12.65;4.63;;;10.30;99.90;;;;;;5012799;28;20506;-82
2021/12/31 01:58:23;;;;;;;7.30;4.65;;;10.30;99.90;;;;;;4995049;28;20037;-82
2021/12/31 02:00:50;;;;;;;10.65;4.40;;;10.40;99.90;;;;;;5012517;28;20018;-82
2021/12/31 02:03:18;;;;;;;6.68;5.28;;;10.30;99.90;;;;;;5012587;28;20034;-82
2021/12/31 02:05:44;;;;;;;8.48;4.47;;;10.30;99.90;;;;;;5012377;28;20164;-82
2021/12/31 02:08:09;;;;;;;7.93;4.13;;;10.30;99.90;;;;;;4994849;28;20469;-82
2021/12/31 02:10:35;;;;;;;6.68;4.13;;;10.20;99.90;;;;;;5012614;28;20037;-82
2021/12/31 02:13:01;;;;;;;6.07;4.40;;;10.20;99.90;;;;;;5012459;28;20026;-82
2021/12/31 02:15:30;;;;;;;9.30;4.40;;;10.20;99.90;;;;;;5012399;28;20065;-82
2021/12/31 02:17:57;;;;;;;9.68;4.40;;;10.20;99.90;;;;;;5012807;28;20018;-82
2021/12/31 02:20:33;;;;;;;9.57;4.50;;;10.20;99.90;;;;;;5012054;28;20487;-82
2021/12/31 02:23:06;;;;;;;9.57;4.22;;;10.20;99.90;;;;;;5012107;28;20033;-82
2021/12/31 02:25:33;;;;;;;11.57;4.75;;;10.20;99.90;;;;;;5012480;28;20120;-82
2021/12/31 02:27:59;;;;;;;6.68;4.18;;;10.20;99.90;;;;;;5012126;28;20026;-82
2021/12/31 02:30:25;;;;;;;7.35;3.95;;;10.30;99.90;;;;;;5012107;28;20059;-82
2021/12/31 02:32:51;;;;;;;8.02;3.83;;;10.30;99.90;;;;;;5012185;28;20029;-82
2021/12/31 02:35:17;;;;;;;5.95;3.80;;;10.20;99.90;;;;;;4994316;28;20367;-82
2021/12/31 02:37:43;;;;;;;9.00;4.95;;;10.20;99.90;;;;;;4994111;28;20052;-82
2021/12/31 02:40:13;;;;;;;10.95;6.07;;;10.20;99.90;;;;;;5011614;28;20129;-82
2021/12/31 02:42:40;;;;;;;10.57;5.65;;;10.20;99.90;;;;;;5011274;28;20049;-82
2021/12/31 02:45:07;;;;;;;8.50;5.22;;;10.20;99.90;;;;;;5011657;28;20044;-82
2021/12/31 02:47:34;;;;;;;8.40;5.00;;;10.10;99.90;;;;;;5011773;28;20029;-82
2021/12/31 02:50:03;;;;;;;6.68;4.25;;;10.20;99.90;;;;;;5011738;28;20603;-82
2021/12/31 02:52:29;;;;;;;8.45;4.60;;;10.20;99.90;;;;;;5011775;28;20022;-82
2021/12/31 02:54:57;;;;;;;10.60;4.45;;;10.20;99.90;;;;;;4994054;28;20033;-82
2021/12/31 02:57:26;;;;;;;6.97;3.97;;;10.10;99.90;;;;;;5011985;28;20043;-82
2021/12/31 02:59:52;;;;;;;10.70;4.90;;;10.10;99.90;;;;;;5011643;28;20029;-82
2021/12/31 03:02:24;;;;;;;7.30;5.47;;;10.20;99.90;;;;;;5011396;28;20026;-82
2021/12/31 03:04:52;;;;;;;7.55;5.35;;;10.20;99.90;;;;;;5011141;28;20049;-82
2021/12/31 03:07:19;;;;;;;7.60;4.65;;;10.20;99.90;;;;;;5011424;28;20029;-82
2021/12/31 03:09:47;;;;;;;10.77;4.97;;;10.30;99.90;;;;;;5011350;28;20034;-82
2021/12/31 03:12:14;;;;;;;8.98;5.60;;;10.20;99.90;;;;;;5011467;28;20018;-82
2021/12/31 03:14:43;;;;;;;11.50;5.70;;;10.20;99.90;;;;;;5011406;28;20485;-82
2021/12/31 03:17:09;;;;;;;8.65;5.43;;;10.20;99.90;;;;;;4993672;28;20108;-82
2021/12/31 03:19:35;;;;;;;7.78;5.68;;;10.20;99.90;;;;;;5011058;28;20034;-82
2021/12/31 03:22:02;;;;;;;10.57;5.88;;;10.20;99.90;;;;;;5011022;28;20049;-82
2021/12/31 03:24:28;;;;;;;8.68;5.47;;;10.20;99.90;;;;;;5010823;28;20021;-82
2021/12/31 03:26:54;;;;;;;6.68;5.00;;;10.20;99.90;;;;;;5010985;28;20105;-82
2021/12/31 03:29:21;;;;;;;11.40;5.25;;;10.10;99.90;;;;;;5011050;28;20018;-82
2021/12/31 03:31:46;;;;;;;11.82;5.72;;;10.20;99.90;;;;;;5011077;28;20105;-82
2021/12/31 03:34:14;;;;;;;9.20;6.03;;;10.10;99.90;;;;;;4993284;28;20125;-82
2021/12/31 03:36:41;;;;;;;8.25;5.88;;;10.10;99.90;;;;;;5010931;28;20022;-82
2021/12/31 03:39:07;;;;;;;8.73;5.65;;;10.20;99.90;;;;;;5010707;28;20017;-82
2021/12/31 03:41:33;;;;;;;8.48;5.10;;;10.10;99.90;;;;;;5011156;28;20032;-81
2021/12/31 03:43:59;;;;;;;6.32;4.75;;;10.10;99.90;;;;;;5010867;28;20033;-82
2021/12/31 03:46:25;;;;;;;11.07;8.18;;;10.10;99.90;;;;;;5010761;28;20040;-82
2021/12/31 03:48:51;;;;;;;13.77;8.30;;;10.00;99.90;;;;;;5010528;28;20049;-82
2021/12/31 03:51:16;;;;;;;13.90;9.00;;;10.00;99.90;;;;;;4992784;28;20037;-82
2021/12/31 03:53:42;;;;;;;13.90;8.63;;;10.00;99.90;;;;;;5010618;28;20101;-82
2021/12/31 03:56:08;;;;;;;11.13;8.63;;;10.00;99.90;;;;;;5010683;28;20065;-82
2021/12/31 03:58:34;;;;;;;8.70;6.93;;;9.90;99.90;;;;;;5010755;28;20072;-82
2021/12/31 04:00:59;;;;;;;10.05;6.60;;;9.80;99.90;;;;;;5010523;28;20022;-82
2021/12/31 04:03:25;;;;;;;7.80;5.32;;;9.80;99.90;;;;;;5010422;28;20499;-82
2021/12/31 04:05:51;;;;;;;8.55;5.65;;;9.70;99.90;;;;;;5010102;28;20624;-82
2021/12/31 04:08:17;;;;;;;8.82;5.40;;;9.70;99.90;;;;;;5010203;28;20024;-82
2021/12/31 04:10:43;;;;;;;9.85;5.25;;;9.80;99.90;;;;;;5010362;28;20410;-82
2021/12/31 04:13:09;;;;;;;7.88;4.68;;;9.80;99.90;;;;;;5010323;28;20017;-82
2021/12/31 04:15:35;;;;;;;10.75;6.32;;;9.80;99.90;;;;;;5010526;28;20549;-82
2021/12/31 04:18:00;;;;;;;9.32;5.78;;;9.80;99.90;;;;;;5010651;28;20048;-82
2021/12/31 04:20:42;;;;;;;13.98;7.55;;;9.80;99.90;;;;;;5009999;28;20109;-83
2021/12/31 04:23:14;;;;;;;11.07;6.78;;;9.80;99.90;;;;;;4992473;28;20033;-83
2021/12/31 04:25:41;;;;;;;9.57;6.45;;;9.80;99.90;;;;;;5009979;28;20513;-82
2021/12/31 04:28:07;;;;;;;8.50;5.15;;;9.80;99.90;;;;;;4992398;28;20026;-82
2021/12/31 04:30:33;;;;;;;7.85;4.60;;;9.80;99.90;;;;;;5010242;28;20588;-82
2021/12/31 04:33:00;;;;;;;8.93;5.35;;;9.80;99.90;;;;;;5010421;28;20026;-82
2021/12/31 04:35:26;;;;;;;7.97;6.18;;;9.80;99.90;;;;;;5010362;28;20022;-82
2021/12/31 04:37:52;;;;;;;9.60;6.30;;;9.80;99.90;;;;;;5009987;28;20509;-82
2021/12/31 04:40:18;;;;;;;7.47;5.57;;;9.80;99.90;;;;;;5010160;28;20029;-82
2021/12/31 04:42:44;;;;;;;7.30;4.45;;;9.70;99.90;;;;;;5010117;28;20461;-82
2021/12/31 04:45:12;;;;;;;9.63;5.40;;;9.70;99.90;;;;;;5009834;28;20117;-82
2021/12/31 04:47:38;;;;;;;8.25;5.40;;;9.70;99.90;;;;;;5009685;28;20526;-82
2021/12/31 04:50:05;;;;;;;7.40;5.07;;;9.60;99.90;;;;;;5009900;28;20030;-82
2021/12/31 04:52:31;;;;;;;6.18;4.88;;;9.60;99.90;;;;;;5010171;28;20111;-82
2021/12/31 04:54:57;;;;;;;8.90;5.45;;;9.60;99.90;;;;;;5010082;28;20061;-82
2021/12/31 04:57:25;;;;;;;7.85;4.40;;;9.50;99.90;;;;;;5010267;28;20026;-82
2021/12/31 04:59:51;;;;;;;9.20;5.57;;;9.50;99.90;;;;;;5010006;28;20068;-82
2021/12/31 05:02:17;;;;;;;10.48;5.97;;;9.60;99.90;;;;;;5009849;28;20025;-82
2021/12/31 05:04:44;;;;;;;10.73;5.78;;;9.60;99.90;;;;;;4993747;28;20044;-82
2021/12/31 05:07:10;;;;;;;14.95;6.88;;;9.60;99.90;;;;;;5013695;28;20026;-82
2021/12/31 05:09:36;;;;;;;10.85;6.28;;;9.60;99.90;;;;;;5013479;28;20026;-82
2021/12/31 05:12:04;;;;;;;9.52;5.80;;;9.60;99.90;;;;;;5013522;28;20079;-83
2021/12/31 05:14:30;;;;;;;9.93;5.35;;;9.60;99.90;;;;;;5013642;28;20025;-82
2021/12/31 05:16:56;;;;;;;9.13;5.65;;;9.60;99.90;;;;;;5013528;28;20030;-82
2021/12/31 05:19:22;;;;;;;5.80;4.25;;;9.60;99.90;;;;;;4995696;28;20478;-82
2021/12/31 05:21:47;;;;;;;8.88;4.55;;;9.60;99.90;;;;;;5013488;28;20444;-82
2021/12/31 05:24:16;;;;;;;6.65;4.55;;;9.60;99.90;;;;;;5013292;28;20237;-82
2021/12/31 05:26:42;;;;;;;16.75;5.00;;;9.50;99.90;;;;;;4995905;28;20457;-82
2021/12/31 05:29:07;;;;;;;7.05;4.43;;;9.50;99.90;;;;;;5013618;28;20021;-82
2021/12/31 05:31:33;;;;;;;5.78;4.07;;;9.50;99.90;;;;;;5013269;28;20182;-82
2021/12/31 05:33:59;;;;;;;8.32;4.35;;;9.40;99.90;;;;;;5013092;28;20195;-82
2021/12/31 05:36:25;;;;;;;9.20;4.88;;;9.40;99.90;;;;;;5013332;28;20414;-82
2021/12/31 05:38:50;;;;;;;7.90;4.82;;;9.40;99.90;;;;;;5013090;28;20030;-82
2021/12/31 05:41:16;;;;;;;7.32;4.63;;;9.40;99.90;;;;;;5013032;28;20022;-82
2021/12/31 05:43:42;;;;;;;9.88;4.90;;;9.30;99.90;;;;;;5012970;28;20498;-82
2021/12/31 05:46:07;;;;;;;9.52;5.32;;;9.30;99.90;;;;;;5013022;28;20042;-82
2021/12/31 05:48:33;;;;;;;10.23;5.10;;;9.40;99.90;;;;;;5012502;28;20526;-82
2021/12/31 05:50:59;;;;;;;10.88;6.07;;;9.40;99.90;;;;;;5012774;28;20036;-82
2021/12/31 05:53:25;;;;;;;7.85;5.70;;;9.40;99.90;;;;;;5012921;28;20030;-82
2021/12/31 05:55:51;;;;;;;12.82;5.47;;;9.50;99.90;;;;;;5012708;28;20026;-82
2021/12/31 05:58:17;;;;;;;9.20;5.35;;;9.50;99.90;;;;;;5012714;28;20036;-82
2021/12/31 06:00:43;;;;;;;10.77;4.72;;;9.50;99.90;;;;;;5012958;28;20013;-82
2021/12/31 06:03:08;;;;;;;16.45;10.52;;;9.50;99.90;;;;;;5012740;28;20034;-82
2021/12/31 06:05:35;;;;;;;14.20;7.95;;;9.50;99.90;;;;;;5012461;28;20300;-82
2021/12/31 06:08:00;;;;;;;11.48;6.13;;;9.50;99.90;;;;;;5012535;28;20427;-82
2021/12/31 06:10:26;;;;;;;8.63;4.93;;;9.50;99.90;;;;;;5012437;28;20050;-82
2021/12/31 06:12:58;;;;;;;8.15;4.82;;;9.50;99.90;;;;;;5012503;28;20029;-82
2021/12/31 06:15:25;;;;;;;8.38;5.20;;;9.50;99.90;;;;;;5011764;28;20057;-82
2021/12/31 06:17:51;;;;;;;8.65;5.10;;;9.50;99.90;;;;;;5012158;28;20474;-82
2021/12/31 06:20:17;;;;;;;10.00;4.70;;;9.40;99.90;;;;;;5012367;28;20030;-82
2021/12/31 06:22:42;;;;;;;13.40;5.28;;;9.40;99.90;;;;;;5012440;28;20505;-82
2021/12/31 06:25:08;;;;;;;12.85;7.13;;;9.40;99.90;;;;;;5012059;28;20255;-83
2021/12/31 06:27:34;;;;;;;10.32;6.10;;;9.30;99.90;;;;;;4994937;28;20022;-82
2021/12/31 06:30:01;;;;;;;11.90;6.57;;;9.40;99.90;;;;;;4994509;28;20109;-83
2021/12/31 06:32:27;;;;;;;7.75;5.25;;;9.50;99.90;;;;;;4994476;28;20021;-82
2021/12/31 06:34:52;;;;;;;9.52;5.40;;;9.40;99.90;;;;;;5012051;28;20505;-82
2021/12/31 06:37:18;;;;;;;10.23;4.85;;;9.40;99.90;;;;;;5012015;28;20038;-82
2021/12/31 06:39:45;;;;;;;9.63;4.85;;;9.40;99.90;;;;;;5011889;28;20018;-82
2021/12/31 06:42:11;;;;;;;6.10;4.40;;;9.40;99.90;;;;;;4994400;28;20026;-82
2021/12/31 06:44:38;;;;;;;7.93;5.07;;;9.30;99.90;;;;;;5012089;28;20034;-82
2021/12/31 06:47:04;;;;;;;7.82;4.50;;;9.30;99.90;;;;;;5011638;28;20022;-83
2021/12/31 06:49:30;;;;;;;6.55;4.55;;;9.20;99.90;;;;;;5011432;28;20409;-82
2021/12/31 06:51:56;;;;;;;12.77;7.65;;;9.20;99.90;;;;;;4993994;28;20038;-83
2021/12/31 06:54:21;;;;;;;57.25;31.17;;;9.20;99.90;;;;;;5011694;28;20018;-82
2021/12/31 06:56:47;;;;;;;96.93;56.70;;;9.20;99.90;;;;;;5011691;28;20072;-82
2021/12/31 06:59:13;;;;;;;78.82;44.20;;;9.20;99.90;;;;;;4993912;28;20498;-82
2021/12/31 07:01:38;;;;;;;65.78;36.65;;;9.20;99.90;;;;;;5011600;28;20030;-82
2021/12/31 07:04:04;;;;;;;50.92;31.05;;;9.10;99.90;;;;;;5011309;28;20097;-82
2021/12/31 07:06:30;;;;;;;47.03;27.52;;;9.10;99.90;;;;;;5011436;28;20065;-82
2021/12/31 07:08:55;;;;;;;37.47;22.02;;;9.00;99.90;;;;;;5011689;28;20449;-82
2021/12/31 07:11:22;;;;;;;14.90;10.23;;;9.00;99.90;;;;;;5011197;28;20089;-82
2021/12/31 07:13:51;;;;;;;16.98;9.70;;;9.00;99.90;;;;;;5011255;28;20072;-82
2021/12/31 07:16:18;;;;;;;14.63;10.95;;;9.00;99.90;;;;;;5011244;28;20026;-82
2021/12/31 07:18:43;;;;;;;16.30;10.38;;;8.90;99.90;;;;;;4991027;28;20049;-85
2021/12/31 07:21:09;;;;;;;11.90;8.40;;;8.90;99.90;;;;;;5011033;28;20475;-85
2021/12/31 07:23:35;;;;;;;11.68;7.97;;;8.90;99.90;;;;;;4993429;28;20022;-85
2021/12/31 07:26:01;;;;;;;9.80;8.60;;;8.90;99.90;;;;;;5010992;28;20095;-85
2021/12/31 07:28:28;;;;;;;12.35;7.20;;;8.90;99.90;;;;;;4975935;28;20442;-85
2021/12/31 07:30:55;;;;;;;13.63;6.93;;;8.90;99.90;;;;;;4987847;28;20037;-85
2021/12/31 07:33:24;;;;;;;9.32;6.13;;;9.00;99.90;;;;;;5010488;28;20466;-84
2021/12/31 07:35:52;;;;;;;8.02;5.35;;;9.00;99.90;;;;;;5010510;28;20022;-85
2021/12/31 07:38:27;;;;;;;9.05;5.70;;;9.00;99.90;;;;;;5010446;28;20022;-85
2021/12/31 07:40:53;;;;;;;10.20;5.47;;;9.10;99.90;;;;;;5009822;28;20045;-86
2021/12/31 07:43:21;;;;;;;9.55;5.50;;;9.10;99.90;;;;;;5010270;28;20104;-84
2021/12/31 07:45:48;;;;;;;9.82;6.18;;;9.10;99.90;;;;;;5010305;28;20398;-84
2021/12/31 07:48:14;;;;;;;9.90;6.07;;;9.10;99.90;;;;;;5009296;28;20048;-83
2021/12/31 07:50:40;;;;;;;7.25;5.18;;;9.10;99.90;;;;;;5008607;28;20030;-85
2021/12/31 07:53:06;;;;;;;9.18;5.90;;;9.10;99.90;;;;;;5010341;28;20306;-88
2021/12/31 07:55:33;;;;;;;10.07;5.35;;;9.10;99.90;;;;;;5011243;28;20509;-89
2021/12/31 07:57:59;;;;;;;9.50;4.93;;;9.10;99.90;;;;;;4994690;28;20030;-89
2021/12/31 08:00:25;;;;;;;9.20;5.40;;;9.20;99.90;;;;;;5011126;28;20199;-88
2021/12/31 08:02:53;;;;;;;10.82;5.75;;;9.20;99.90;;;;;;5010748;28;20462;-90
2021/12/31 08:05:18;;;;;;;10.30;6.03;;;9.20;99.90;;;;;;5011870;28;20044;-90
2021/12/31 08:07:44;;;;;;;9.45;6.03;;;9.20;99.90;;;;;;4993239;28;20414;-89
2021/12/31 08:10:09;;;;;;;12.73;8.48;;;9.20;99.90;;;;;;4991843;28;20033;-89
2021/12/31 08:12:35;;;;;;;9.25;7.15;;;9.20;99.90;;;;;;5009916;28;20173;-89
2021/12/31 08:15:04;;;;;;;13.65;6.45;;;9.30;99.90;;;;;;4993166;28;20096;-89
2021/12/31 08:17:30;;;;;;;8.05;5.95;;;9.30;99.90;;;;;;5010644;28;20065;-88
2021/12/31 08:19:56;;;;;;;9.73;6.10;;;9.30;99.90;;;;;;5009809;28;20495;-89
2021/12/31 08:22:22;;;;;;;7.15;4.78;;;9.30;99.90;;;;;;5011510;28;20022;-84
2021/12/31 08:24:48;;;;;;;10.77;7.03;;;9.30;99.90;;;;;;5012066;28;20095;-90
2021/12/31 08:27:14;;;;;;;8.48;5.35;;;9.30;99.90;;;;;;5013270;28;20022;-86
2021/12/31 08:29:39;;;;;;;11.68;6.43;;;9.30;99.90;;;;;;5013393;28;20101;-85
2021/12/31 08:32:06;;;;;;;13.25;8.38;;;9.40;99.90;;;;;;5015452;28;20068;-86
2021/12/31 08:34:32;;;;;;;10.90;6.63;;;9.40;99.90;;;;;;5012595;28;20025;-85
2021/12/31 08:36:58;;;;;;;12.18;7.15;;;9.40;99.90;;;;;;5013424;28;20026;-85
2021/12/31 08:39:24;;;;;;;13.93;6.70;;;9.50;99.90;;;;;;5015226;28;20021;-86
2021/12/31 08:41:49;;;;;;;13.18;7.45;;;9.50;99.90;;;;;;4996544;28;20675;-86
2021/12/31 08:44:16;;;;;;;12.10;6.40;;;9.50;99.90;;;;;;5017591;28;20045;-86
2021/12/31 08:46:42;;;;;;;7.68;6.05;;;9.60;99.90;;;;;;4998240;28;20061;-86
2021/12/31 08:49:08;;;;;;;12.57;6.05;;;9.70;99.90;;;;;;4953505;28;1358925;-86
2021/12/31 08:51:34;;;;;;;14.38;6.57;;;9.80;99.90;;;;;;5018303;28;20038;-90
2021/12/31 08:54:00;;;;;;;12.18;6.20;;;9.80;99.90;;;;;;5014823;28;20013;-88
2021/12/31 08:56:26;;;;;;;13.40;5.57;;;9.80;99.90;;;;;;5017178;28;20052;-86
2021/12/31 08:58:52;;;;;;;9.73;5.28;;;9.90;99.90;;;;;;5000504;28;20034;-86
2021/12/31 09:01:18;;;;;;;12.40;5.45;;;9.90;99.90;;;;;;5000097;28;20033;-87
2021/12/31 09:03:43;;;;;;;13.60;6.43;;;10.00;99.90;;;;;;5001043;28;20034;-87
2021/12/31 09:06:09;;;;;;;10.23;6.47;;;10.00;99.90;;;;;;5016533;28;20030;-86
2021/12/31 09:08:35;;;;;;;11.82;6.47;;;10.00;99.90;;;;;;4999516;28;20022;-86
2021/12/31 09:11:02;;;;;;;13.82;6.45;;;10.00;99.90;;;;;;5014647;28;20221;-85
2021/12/31 09:13:28;;;;;;;17.95;6.57;;;10.00;99.90;;;;;;5002045;28;20042;-87
2021/12/31 09:15:54;;;;;;;17.90;6.65;;;10.10;99.90;;;;;;4994315;28;20046;-87
2021/12/31 09:18:21;;;;;;;12.38;6.38;;;10.10;99.90;;;;;;5014546;28;20246;-87
2021/12/31 09:20:47;;;;;;;10.93;5.82;;;10.30;99.90;;;;;;4996846;28;20180;-87
2021/12/31 09:23:13;;;;;;;14.60;6.15;;;10.30;99.90;;;;;;4995301;28;20219;-88
2021/12/31 09:25:38;;;;;;;11.25;6.53;;;10.40;99.90;;;;;;5013541;28;20398;-86
2021/12/31 09:28:04;;;;;;;21.83;7.55;;;10.50;99.90;;;;;;5012233;28;20398;-87
2021/12/31 09:30:30;;;;;;;13.20;6.10;;;10.50;99.90;;;;;;5012890;28;20022;-86
2021/12/31 09:32:55;;;;;;;16.20;6.20;;;10.60;99.90;;;;;;5012445;28;20437;-87
2021/12/31 09:35:21;;;;;;;14.02;7.07;;;10.60;99.90;;;;;;5003334;28;20026;-84
2021/12/31 09:37:47;;;;;;;15.10;6.70;;;10.70;99.90;;;;;;5008818;28;20038;-84
2021/12/31 09:40:15;;;;;;;21.80;9.73;;;10.80;99.90;;;;;;4993611;28;20030;-84
2021/12/31 09:43:09;;;;;;;17.58;6.95;;;10.80;99.90;;;;;;4993320;28;20056;-85
2021/12/31 09:45:36;;;;;;;17.17;6.97;;;10.80;99.90;;;;;;4991200;28;20046;-84
2021/12/31 09:48:09;;;;;;;20.05;6.70;;;10.90;99.90;;;;;;4993306;28;20096;-85
2021/12/31 09:50:38;;;;;;;19.25;7.68;;;10.90;99.90;;;;;;4993075;28;20029;-84
2021/12/31 09:53:05;;;;;;;24.95;6.95;;;11.00;99.90;;;;;;4993148;28;20636;-84
2021/12/31 09:55:51;;;;;;;17.10;6.88;;;11.00;99.90;;;;;;4992559;28;20076;-83
2021/12/31 09:58:18;;;;;;;52.72;16.00;;;11.10;99.90;;;;;;4993626;28;20387;-83
2021/12/31 10:00:47;;;;;;;52.85;15.93;;;11.20;99.90;;;;;;5013560;28;20068;-83
2021/12/31 10:03:28;;;;;;;53.58;16.92;;;11.20;99.90;;;;;;5012706;28;20018;-84
2021/12/31 10:05:58;;;;;;;59.38;16.50;;;11.30;99.90;;;;;;5011805;28;20056;-84
2021/12/31 10:08:26;;;;;;;42.08;13.25;;;11.50;99.90;;;;;;5013634;28;20025;-84
2021/12/31 10:11:07;;;;;;;28.27;7.60;;;11.50;99.90;;;;;;5011506;28;20477;-84
2021/12/31 10:13:35;;;;;;;27.48;8.20;;;11.50;99.90;;;;;;5010154;28;20102;-84
2021/12/31 10:16:01;;;;;;;36.88;10.93;;;11.50;99.90;;;;;;4993186;28;20030;-85
2021/12/31 10:18:37;;;;;;;52.38;13.85;;;11.60;99.90;;;;;;5011698;28;20033;-84
2021/12/31 10:21:04;;;;;;;43.75;14.02;;;11.60;99.90;;;;;;4993998;28;20030;-84
2021/12/31 10:23:36;;;;;;;32.95;9.35;;;11.70;99.90;;;;;;5011090;28;20029;-85
2021/12/31 10:26:19;;;;;;;41.70;9.15;;;11.70;99.90;;;;;;5010580;28;20518;-81
2021/12/31 10:28:56;;;;;;;39.45;11.75;;;11.80;99.90;;;;;;5011113;28;20026;-82
2021/12/31 10:31:22;;;;;;;40.33;8.43;;;11.80;99.90;;;;;;5005659;28;20034;-82
2021/12/31 10:33:49;;;;;;;40.25;8.77;;;11.90;99.90;;;;;;5007703;28;20478;-82
2021/12/31 10:36:37;;;;;;;35.67;11.68;;;11.90;99.90;;;;;;4992711;28;20563;-82
2021/12/31 10:39:18;;;;;;;31.73;7.13;;;12.00;99.90;;;;;;5010025;28;20516;-82
2021/12/31 10:41:48;;;;;;;35.72;9.30;;;12.00;99.90;;;;;;5010109;28;20088;-82
2021/12/31 10:44:14;;;;;;;32.33;8.32;;;12.10;99.90;;;;;;5010739;28;20080;-82
2021/12/31 10:46:41;;;;;;;37.72;10.65;;;12.20;99.90;;;;;;4992675;28;20026;-82
2021/12/31 10:49:10;;;;;;;32.95;8.00;;;12.30;99.90;;;;;;5009643;28;20538;-82
2021/12/31 10:51:45;;;;;;;38.78;8.32;;;12.30;99.90;;;;;;5009688;28;20025;-83
2021/12/31 10:54:32;;;;;;;33.67;7.88;;;12.50;99.90;;;;;;5009578;28;20034;-82
2021/12/31 10:56:59;;;;;;;38.30;9.43;;;12.50;99.90;;;;;;5012024;28;20280;-82
2021/12/31 10:59:26;;;;;;;33.20;7.97;;;12.50;99.90;;;;;;5009997;28;20028;-82
2021/12/31 11:01:52;;;;;;;32.50;8.30;;;12.50;99.90;;;;;;5009305;28;20425;-82
2021/12/31 11:04:21;;;;;;;40.80;8.38;;;12.60;99.90;;;;;;5014356;28;21981;-82
2021/12/31 11:06:47;;;;;;;31.60;8.13;;;12.70;99.90;;;;;;5009066;28;20026;-82
2021/12/31 11:09:14;;;;;;;30.90;6.95;;;12.70;99.90;;;;;;5014320;28;20026;-82
2021/12/31 11:11:43;;;;;;;27.02;6.28;;;12.70;99.90;;;;;;4995492;28;20081;-82
2021/12/31 11:14:10;;;;;;;27.90;6.60;;;12.80;99.90;;;;;;5014100;28;20017;-83
2021/12/31 11:16:39;;;;;;;32.35;7.30;;;12.90;99.90;;;;;;5016191;28;20506;-82
2021/12/31 11:19:06;;;;;;;34.72;11.80;;;13.00;99.90;;;;;;5013082;28;20345;-82
2021/12/31 11:21:33;;;;;;;33.78;11.57;;;13.00;99.90;;;;;;5014608;28;20040;-82
2021/12/31 11:24:30;;;;;;;36.53;9.57;;;13.10;99.90;;;;;;5012412;28;20040;-82
2021/12/31 11:27:19;;;;;;;26.13;7.45;;;13.10;99.90;;;;;;5013766;28;20105;-82
2021/12/31 11:29:45;;;;;;;33.53;9.07;;;13.20;99.90;;;;;;5013933;28;20034;-82
2021/12/31 11:32:11;;;;;;;24.25;9.13;;;13.20;99.90;;;;;;4996131;28;20025;-82
2021/12/31 11:34:37;;;;;;;29.67;9.25;;;13.20;99.90;;;;;;5011705;28;20181;-83
2021/12/31 11:37:03;;;;;;;32.85;8.93;;;13.30;99.90;;;;;;4996443;28;20561;-82
2021/12/31 11:39:36;;;;;;;28.05;8.00;;;13.30;99.90;;;;;;5013245;28;20100;-82
2021/12/31 11:42:05;;;;;;;37.65;7.50;;;13.30;99.90;;;;;;5009636;28;20188;-82
2021/12/31 11:44:32;;;;;;;23.67;6.68;;;13.30;99.90;;;;;;5013115;28;20283;-82
2021/12/31 11:47:09;;;;;;;33.25;8.80;;;13.40;99.90;;;;;;5013503;28;20026;-82
2021/12/31 11:49:35;;;;;;;31.88;8.05;;;13.50;99.90;;;;;;5011355;28;20137;-82
2021/12/31 11:52:14;;;;;;;34.72;8.00;;;13.60;99.90;;;;;;5010595;28;20058;-83
2021/12/31 11:54:40;;;;;;;26.52;6.93;;;13.60;99.90;;;;;;5008974;28;20451;-83
2021/12/31 11:57:13;;;;;;;34.10;8.23;;;13.70;99.90;;;;;;5008913;28;20040;-82
2021/12/31 11:59:50;;;;;;;37.20;7.40;;;13.80;99.90;;;;;;4990962;28;20030;-83
2021/12/31 12:02:20;;;;;;;35.10;7.63;;;14.00;99.90;;;;;;5008203;28;20511;-82
2021/12/31 12:05:07;;;;;;;34.45;6.68;;;14.10;99.90;;;;;;4990616;28;20029;-83
2021/12/31 12:07:47;;;;;;;25.85;7.25;;;14.20;99.90;;;;;;4991098;28;20022;-82
2021/12/31 12:10:17;;;;;;;32.17;8.30;;;14.30;99.90;;;;;;5008098;28;20044;-83
2021/12/31 12:12:49;;;;;;;30.38;8.50;;;14.40;99.90;;;;;;4991366;28;20026;-82
2021/12/31 12:15:15;;;;;;;31.40;8.23;;;14.50;99.90;;;;;;5008144;28;20449;-83
2021/12/31 12:17:43;;;;;;;33.30;7.60;;;14.60;99.90;;;;;;4990496;28;20034;-83
2021/12/31 12:20:13;;;;;;;29.48;6.75;;;14.60;99.90;;;;;;5008003;28;20029;-83
2021/12/31 12:22:50;;;;;;;35.03;8.00;;;14.60;99.90;;;;;;5008317;28;20139;-84
2021/12/31 12:25:20;;;;;;;30.33;8.48;;;14.70;99.90;;;;;;5007988;28;20044;-84
2021/12/31 12:27:48;;;;;;;36.50;7.15;;;14.70;99.90;;;;;;5008440;28;20032;-84
2021/12/31 12:30:15;;;;;;;37.17;8.95;;;14.70;99.90;;;;;;5008472;28;20244;-84
2021/12/31 12:35:16;;;;;;;35.25;8.63;;;14.80;99.90;;;;;;5007862;28;20053;-84
2021/12/31 12:37:42;;;;;;;26.02;7.53;;;14.80;99.90;;;;;;4990629;28;20033;-84
2021/12/31 12:40:09;;;;;;;29.17;7.93;;;14.80;99.90;;;;;;4989872;28;20056;-84
2021/12/31 12:42:35;;;;;;;35.10;9.48;;;14.80;99.90;;;;;;5008387;28;20030;-85
2021/12/31 12:45:08;;;;;;;30.88;8.48;;;14.80;99.90;;;;;;5008211;28;20096;-84
2021/12/31 12:47:37;;;;;;;34.88;8.65;;;14.90;99.90;;;;;;5010957;28;20569;-85
2021/12/31 12:50:08;;;;;;;37.17;8.30;;;14.90;99.90;;;;;;4992767;28;20478;-84
2021/12/31 12:52:34;;;;;;;28.33;8.13;;;15.10;99.90;;;;;;5007965;28;20026;-84